createdAt,value
2018-01-21T00:01:19.398Z,70.73
2018-01-21T00:03:46.860Z,71.70
2018-01-21T00:06:14.334Z,78.00
2018-01-21T00:08:41.789Z,69.60
2018-01-21T00:11:09.258Z,73.90
2018-01-21T00:13:36.738Z,76.93
2018-01-21T00:16:04.975Z,74.00
2018-01-21T00:18:32.453Z,81.43
2018-01-21T00:21:00.682Z,68.90
2018-01-21T00:23:28.173Z,78.43
2018-01-21T00:25:56.632Z,80.23
2018-01-21T00:28:24.102Z,67.80
2018-01-21T00:30:51.566Z,66.90
2018-01-21T00:33:19.155Z,68.50
2018-01-21T00:35:47.385Z,65.80
2018-01-21T00:38:14.870Z,68.17
2018-01-21T00:40:42.472Z,58.43
2018-01-21T00:43:09.930Z,58.60
2018-01-21T00:45:37.417Z,65.37
2018-01-21T00:48:04.882Z,61.07
2018-01-21T00:50:32.398Z,60.43
2018-01-21T00:52:59.856Z,55.60
2018-01-21T00:55:27.334Z,51.53
2018-01-21T00:57:54.799Z,61.37
2018-01-21T01:00:22.254Z,55.33
2018-01-21T01:02:49.738Z,57.83
2018-01-21T01:05:17.965Z,61.23
2018-01-21T01:07:45.463Z,54.23
2018-01-21T01:10:12.917Z,60.47
2018-01-21T01:12:40.381Z,59.03
2018-01-21T01:15:07.874Z,59.80
2018-01-21T01:17:37.594Z,60.90
2018-01-21T01:20:05.153Z,62.10
2018-01-21T01:22:32.626Z,64.93
2018-01-21T01:25:00.110Z,62.87
2018-01-21T01:27:27.566Z,69.83
2018-01-21T01:29:55.045Z,67.63
2018-01-21T01:32:29.005Z,65.43
2018-01-21T01:34:56.481Z,65.37
2018-01-21T01:37:23.946Z,62.70
2018-01-21T01:39:51.455Z,64.60
2018-01-21T01:42:18.913Z,62.93
2018-01-21T01:44:46.389Z,61.03
2018-01-21T01:47:13.870Z,62.23
2018-01-21T01:49:41.325Z,50.73
2018-01-21T01:52:08.817Z,57.50
2018-01-21T01:54:37.055Z,50.23
2018-01-21T01:57:04.529Z,44.73
2018-01-21T01:59:32.766Z,52.03
2018-01-21T02:02:00.250Z,58.27
2018-01-21T02:04:27.722Z,38.30
2018-01-21T02:06:56.034Z,38.17
2018-01-21T02:09:23.512Z,36.57
2018-01-21T02:11:50.968Z,37.13
2018-01-21T02:14:18.457Z,35.50
2018-01-21T02:16:45.933Z,35.60
2018-01-21T02:19:14.165Z,32.47
2018-01-21T02:21:41.637Z,42.00
2018-01-21T02:24:09.114Z,35.73
2018-01-21T02:26:37.361Z,34.27
2018-01-21T02:29:04.833Z,38.10
2018-01-21T02:31:32.294Z,42.20
2018-01-21T02:34:00.529Z,36.90
2018-01-21T02:36:28.005Z,40.67
2018-01-21T02:38:56.343Z,37.93
2018-01-21T02:41:23.813Z,34.47
2018-01-21T02:43:51.278Z,31.03
2018-01-21T02:46:18.746Z,32.00
2018-01-21T02:48:46.271Z,36.23
2018-01-21T02:51:13.742Z,28.80
2018-01-21T02:53:41.235Z,32.57
2018-01-21T02:56:08.697Z,32.00
2018-01-21T02:58:36.941Z,35.87
2018-01-21T03:01:04.415Z,39.70
2018-01-21T03:03:31.889Z,36.13
2018-01-21T03:06:00.205Z,36.63
2018-01-21T03:08:27.681Z,42.50
2018-01-21T03:10:57.250Z,37.80
2018-01-21T03:13:25.477Z,32.73
2018-01-21T03:15:53.307Z,35.63
2018-01-21T03:18:20.867Z,39.73
2018-01-21T03:20:48.329Z,40.80
2018-01-21T03:23:15.801Z,43.80
2018-01-21T03:25:43.294Z,42.20
2018-01-21T03:28:11.518Z,48.63
2018-01-21T03:30:38.977Z,50.57
2018-01-21T03:33:06.465Z,58.20
2018-01-21T03:35:33.926Z,60.40
2018-01-21T03:38:01.434Z,55.63
2018-01-21T03:40:28.994Z,51.50
2018-01-21T03:42:56.444Z,62.30
2018-01-21T03:45:23.929Z,71.43
2018-01-21T03:47:51.389Z,58.37
2018-01-21T03:50:18.866Z,63.87
2018-01-21T03:52:46.326Z,63.13
2018-01-21T03:55:13.793Z,69.23
2018-01-21T03:57:42.027Z,74.33
2018-01-21T04:00:09.509Z,84.20
2018-01-21T04:02:36.969Z,72.33
2018-01-21T04:05:04.436Z,66.77
2018-01-21T04:07:32.684Z,75.07
2018-01-21T04:10:00.211Z,77.70
2018-01-21T04:12:27.673Z,81.47
2018-01-21T04:14:55.139Z,90.50
2018-01-21T04:17:22.619Z,82.03
2018-01-21T04:19:50.086Z,96.10
2018-01-21T04:22:17.554Z,93.67
2018-01-21T04:24:45.785Z,91.00
2018-01-21T04:27:13.261Z,89.03
2018-01-21T04:29:40.782Z,96.37
2018-01-21T04:32:08.236Z,92.67
2018-01-21T04:34:35.722Z,100.13
2018-01-21T04:37:03.201Z,99.03
2018-01-21T04:39:30.670Z,89.20
2018-01-21T04:41:58.909Z,101.60
2018-01-21T04:44:26.386Z,87.00
2018-01-21T04:46:53.849Z,97.10
2018-01-21T04:49:21.335Z,88.53
2018-01-21T04:51:48.797Z,86.27
2018-01-21T04:54:16.269Z,97.83
2018-01-21T04:56:43.750Z,90.53
2018-01-21T04:59:11.243Z,97.63
2018-01-21T05:01:38.735Z,91.37
2018-01-21T05:04:06.293Z,82.60
2018-01-21T05:06:33.761Z,83.63
2018-01-21T05:09:01.238Z,85.47
2018-01-21T05:11:28.764Z,83.20
2018-01-21T05:13:56.222Z,91.93
2018-01-21T05:16:23.694Z,86.43
2018-01-21T05:18:51.159Z,85.10
2018-01-21T05:21:18.625Z,79.47
2018-01-21T05:23:46.111Z,84.20
2018-01-21T05:26:14.352Z,82.70
2018-01-21T05:28:41.826Z,71.53
2018-01-21T05:31:09.294Z,72.90
2018-01-21T05:33:37.533Z,78.17
2018-01-21T05:36:05.006Z,73.72
2018-01-21T05:38:32.526Z,80.20
2018-01-21T05:40:59.994Z,75.33
2018-01-21T05:43:27.490Z,78.25
2018-01-21T05:45:55.744Z,74.18
2018-01-21T05:48:23.201Z,91.90
2018-01-21T05:50:50.685Z,68.73
2018-01-21T05:53:18.933Z,67.55
2018-01-21T05:55:50.613Z,76.40
2018-01-21T05:58:18.078Z,66.93
2018-01-21T06:00:46.316Z,73.22
2018-01-21T06:03:13.806Z,76.00
2018-01-21T06:05:42.038Z,62.90
2018-01-21T06:08:09.502Z,65.00
2018-01-21T06:10:36.982Z,61.57
2018-01-21T06:13:05.222Z,52.83
2018-01-21T06:15:32.694Z,51.90
2018-01-21T06:18:00.182Z,54.10
2018-01-21T06:20:28.426Z,53.60
2018-01-21T06:22:55.905Z,47.33
2018-01-21T06:25:23.378Z,49.67
2018-01-21T06:27:51.608Z,47.83
2018-01-21T06:30:19.074Z,45.03
2018-01-21T06:32:46.595Z,53.27
2018-01-21T06:35:14.154Z,48.83
2018-01-21T06:37:41.607Z,39.40
2018-01-21T06:40:09.065Z,41.50
2018-01-21T06:42:36.556Z,42.40
2018-01-21T06:45:04.022Z,43.03
2018-01-21T06:47:31.515Z,46.67
2018-01-21T06:49:58.990Z,44.33
2018-01-21T06:52:26.473Z,46.00
2018-01-21T06:54:53.954Z,36.73
2018-01-21T06:57:25.047Z,35.80
2018-01-21T06:59:52.530Z,39.78
2018-01-21T07:02:19.989Z,37.50
2018-01-21T07:04:47.465Z,41.20
2018-01-21T07:07:15.705Z,37.00
2018-01-21T07:09:43.156Z,41.07
2018-01-21T07:12:10.634Z,38.07
2018-01-21T07:14:38.115Z,40.70
2018-01-21T07:17:05.572Z,36.00
2018-01-21T07:19:33.894Z,45.40
2018-01-21T07:22:01.346Z,42.00
2018-01-21T07:24:28.829Z,38.63
2018-01-21T07:26:56.301Z,32.07
2018-01-21T07:29:23.761Z,31.40
2018-01-21T07:31:52.030Z,34.75
2018-01-21T07:34:19.530Z,36.40
2018-01-21T07:36:46.966Z,33.60
2018-01-21T07:39:15.190Z,36.57
2018-01-21T07:41:42.658Z,33.50
2018-01-21T07:44:10.199Z,25.67
2018-01-21T07:46:37.658Z,26.97
2018-01-21T07:49:05.154Z,29.63
2018-01-21T07:51:32.634Z,24.87
2018-01-21T07:54:00.874Z,34.27
2018-01-21T07:56:28.337Z,23.63
2018-01-21T07:58:56.582Z,25.40
2018-01-21T08:01:24.058Z,23.53
2018-01-21T08:03:52.817Z,22.57
2018-01-21T08:06:20.310Z,21.57
2018-01-21T08:08:47.765Z,16.00
2018-01-21T08:11:15.225Z,22.50
2018-01-21T08:13:43.281Z,27.60
2018-01-21T08:16:11.230Z,18.10
2018-01-21T08:18:38.689Z,31.80
2018-01-21T08:21:06.153Z,20.70
2018-01-21T08:23:33.653Z,23.90
2018-01-21T08:26:01.886Z,24.27
2018-01-21T08:28:30.368Z,17.67
2018-01-21T08:30:57.904Z,16.83
2018-01-21T08:33:25.390Z,18.80
2018-01-21T08:35:58.656Z,15.80
2018-01-21T08:38:31.846Z,19.10
2018-01-21T08:41:05.018Z,14.90
2018-01-21T08:43:32.513Z,17.03
2018-01-21T08:45:59.985Z,14.90
2018-01-21T08:48:27.466Z,13.37
2018-01-21T08:50:55.707Z,22.37
2018-01-21T08:53:23.167Z,15.73
2018-01-21T08:55:51.353Z,12.33
2018-01-21T08:58:19.568Z,13.50
2018-01-21T09:00:48.619Z,18.30
2018-01-21T09:03:16.109Z,11.53
2018-01-21T09:05:44.362Z,14.57
2018-01-21T09:08:11.901Z,10.77
2018-01-21T09:10:39.361Z,13.97
2018-01-21T09:13:06.824Z,12.50
2018-01-21T09:15:34.278Z,13.03
2018-01-21T09:18:01.758Z,12.07
2018-01-21T09:20:36.010Z,11.40
2018-01-21T09:23:03.474Z,14.93
2018-01-21T09:25:31.027Z,12.00
2018-01-21T09:28:02.745Z,8.40
2018-01-21T09:30:31.012Z,9.80
2018-01-21T09:32:59.886Z,12.77
2018-01-21T09:35:28.893Z,13.50
2018-01-21T09:37:57.288Z,8.80
2018-01-21T09:40:25.527Z,14.30
2018-01-21T09:42:53.010Z,14.60
2018-01-21T09:45:22.049Z,14.30
2018-01-21T09:47:51.278Z,10.97
2018-01-21T09:50:18.731Z,9.07
2018-01-21T09:52:47.698Z,15.03
2018-01-21T09:55:15.161Z,9.50
2018-01-21T09:57:43.854Z,11.37
2018-01-21T10:00:12.081Z,9.57
2018-01-21T10:02:42.479Z,10.40
2018-01-21T10:05:11.522Z,14.33
2018-01-21T10:07:39.694Z,10.83
2018-01-21T10:10:07.137Z,11.30
2018-01-21T10:12:39.056Z,11.40
2018-01-21T10:15:06.570Z,10.97
2018-01-21T10:17:34.618Z,7.07
2018-01-21T10:20:02.887Z,18.87
2018-01-21T10:22:32.035Z,8.17
2018-01-21T10:25:00.161Z,13.33
2018-01-21T10:27:27.614Z,8.40
2018-01-21T10:29:56.386Z,15.27
2018-01-21T10:32:24.622Z,11.03
2018-01-21T10:34:54.014Z,8.53
2018-01-21T10:37:21.725Z,11.20
2018-01-21T10:39:49.974Z,15.40
2018-01-21T10:42:18.315Z,8.17
2018-01-21T10:44:45.803Z,7.70
2018-01-21T10:47:13.275Z,12.93
2018-01-21T10:49:40.754Z,9.63
2018-01-21T10:52:09.005Z,7.97
2018-01-21T10:54:37.382Z,9.63
2018-01-21T10:57:04.841Z,9.30
2018-01-21T10:59:33.184Z,9.63
2018-01-21T11:02:00.634Z,10.67
2018-01-21T11:04:28.103Z,6.83
2018-01-21T11:06:55.584Z,9.60
2018-01-21T11:09:24.430Z,7.80
2018-01-21T11:11:52.316Z,15.90
2018-01-21T11:14:19.814Z,8.33
2018-01-21T11:16:48.042Z,11.17
2018-01-21T11:19:15.533Z,10.17
2018-01-21T11:21:43.009Z,7.40
2018-01-21T11:24:11.813Z,10.87
2018-01-21T11:26:39.298Z,11.00
2018-01-21T11:29:06.773Z,7.77
2018-01-21T11:31:34.301Z,7.73
2018-01-21T11:34:04.436Z,9.43
2018-01-21T11:36:31.899Z,8.00
2018-01-21T11:38:59.386Z,10.13
2018-01-21T11:41:26.889Z,7.90
2018-01-21T11:43:54.893Z,12.93
2018-01-21T11:46:22.353Z,8.87
2018-01-21T11:48:50.418Z,7.90
2018-01-21T11:51:17.944Z,9.13
2018-01-21T11:53:45.418Z,9.27
2018-01-21T11:56:13.699Z,10.23
2018-01-21T11:58:42.359Z,8.10
2018-01-21T12:01:09.846Z,8.77
2018-01-21T12:03:37.323Z,11.50
2018-01-21T12:06:04.797Z,7.70
2018-01-21T12:08:32.245Z,6.53
2018-01-21T12:11:00.498Z,7.10
2018-01-21T12:13:27.972Z,12.90
2018-01-21T12:15:57.684Z,7.33
2018-01-21T12:18:25.184Z,8.50
2018-01-21T12:20:53.707Z,10.63
2018-01-21T12:23:21.165Z,5.47
2018-01-21T12:25:49.704Z,5.33
2018-01-21T12:28:17.179Z,11.33
2018-01-21T12:30:44.663Z,9.63
2018-01-21T12:33:12.136Z,11.67
2018-01-21T12:35:39.617Z,5.93
2018-01-21T12:38:08.410Z,6.90
2018-01-21T12:40:36.812Z,6.00
2018-01-21T12:43:04.290Z,12.13
2018-01-21T12:45:31.758Z,15.17
2018-01-21T12:47:59.234Z,7.90
2018-01-21T12:50:27.486Z,6.20
2018-01-21T12:52:54.954Z,5.17
2018-01-21T12:55:23.259Z,8.33
2018-01-21T12:57:51.476Z,8.80
2018-01-21T13:00:18.945Z,6.73
2018-01-21T13:02:46.414Z,13.43
2018-01-21T13:05:13.870Z,6.33
2018-01-21T13:07:41.341Z,5.97
2018-01-21T13:10:09.593Z,14.43
2018-01-21T13:12:37.062Z,14.90
2018-01-21T13:15:06.533Z,13.27
2018-01-21T13:17:34.011Z,6.13
2018-01-21T13:20:02.042Z,14.50
2018-01-21T13:22:30.718Z,10.80
2018-01-21T13:24:58.277Z,10.50
2018-01-21T13:27:25.750Z,15.53
2018-01-21T13:29:53.992Z,10.07
2018-01-21T13:32:21.454Z,12.67
2018-01-21T13:34:48.947Z,11.87
2018-01-21T13:37:16.417Z,11.63
2018-01-21T13:39:43.900Z,12.70
2018-01-21T13:42:12.140Z,11.17
2018-01-21T13:44:39.617Z,12.20
2018-01-21T13:47:07.067Z,9.33
2018-01-21T13:49:34.518Z,10.23
2018-01-21T13:52:01.991Z,10.83
2018-01-21T13:54:29.497Z,8.50
2018-01-21T13:56:56.953Z,13.23
2018-01-21T13:59:24.417Z,11.33
2018-01-21T14:01:51.909Z,13.47
2018-01-21T14:04:19.382Z,14.80
2018-01-21T14:06:46.850Z,14.43
2018-01-21T14:09:15.095Z,11.63
2018-01-21T14:11:42.562Z,8.70
2018-01-21T14:14:10.022Z,10.87
2018-01-21T14:16:38.279Z,10.90
2018-01-21T14:19:05.734Z,13.47
2018-01-21T14:21:33.209Z,18.50
2018-01-21T14:24:01.441Z,11.57
2018-01-21T14:26:28.913Z,11.60
2018-01-21T14:28:56.402Z,12.20
2018-01-21T14:31:24.642Z,15.03
2018-01-21T14:33:52.141Z,15.10
2018-01-21T14:36:19.613Z,20.37
2018-01-21T14:38:47.065Z,16.20
2018-01-21T14:41:14.565Z,15.27
2018-01-21T14:43:42.030Z,15.57
2018-01-21T14:46:09.504Z,14.70
2018-01-21T14:48:37.010Z,14.37
2018-01-21T14:51:04.487Z,14.03
2018-01-21T14:53:31.938Z,22.07
2018-01-21T14:55:59.418Z,14.73
2018-01-21T14:58:26.875Z,17.27
2018-01-21T15:00:54.349Z,23.73
2018-01-21T15:03:22.590Z,16.67
2018-01-21T15:05:50.072Z,13.20
2018-01-21T15:08:17.533Z,17.90
2018-01-21T15:10:44.985Z,15.37
2018-01-21T15:13:12.478Z,21.00
2018-01-21T15:15:39.934Z,18.67
2018-01-21T15:18:07.417Z,15.60
2018-01-21T15:20:34.881Z,20.20
2018-01-21T15:23:02.380Z,20.63
2018-01-21T15:25:29.832Z,14.93
2018-01-21T15:27:57.289Z,15.90
2018-01-21T15:30:25.538Z,17.00
2018-01-21T15:32:53.002Z,19.27
2018-01-21T15:35:20.531Z,20.23
2018-01-21T15:37:48.706Z,19.90
2018-01-21T15:40:16.177Z,19.10
2018-01-21T15:42:43.661Z,16.97
2018-01-21T15:45:11.146Z,23.27
2018-01-21T15:47:39.375Z,17.50
2018-01-21T15:50:06.840Z,17.90
2018-01-21T15:52:34.306Z,19.10
2018-01-21T15:55:02.553Z,20.43
2018-01-21T15:57:30.049Z,20.70
2018-01-21T15:59:58.274Z,23.07
2018-01-21T16:02:25.746Z,26.07
2018-01-21T16:04:53.217Z,20.40
2018-01-21T16:07:20.694Z,18.50
2018-01-21T16:09:48.934Z,28.73
2018-01-21T16:12:16.465Z,16.17
2018-01-21T16:14:44.681Z,20.83
2018-01-21T16:17:12.166Z,17.70
2018-01-21T16:19:39.643Z,22.70
2018-01-21T16:22:07.115Z,23.03
2018-01-21T16:24:34.607Z,19.90
2018-01-21T16:27:02.057Z,23.93
2018-01-21T16:29:29.552Z,26.47
2018-01-21T16:31:57.014Z,25.97
2018-01-21T16:34:26.964Z,35.47
2018-01-21T16:36:56.756Z,21.43
2018-01-21T16:39:24.229Z,31.23
2018-01-21T16:41:51.711Z,25.60
2018-01-21T16:44:19.188Z,29.60
2018-01-21T16:46:46.666Z,28.67
2018-01-21T16:49:14.174Z,24.23
2018-01-21T16:51:41.641Z,27.77
2018-01-21T16:54:10.080Z,31.43
2018-01-21T16:56:37.822Z,27.73
2018-01-21T16:59:05.284Z,27.47
2018-01-21T17:01:32.758Z,29.73
2018-01-21T17:04:00.221Z,31.33
2018-01-21T17:06:28.521Z,25.43
2018-01-21T17:08:56.781Z,29.50
2018-01-21T17:11:25.999Z,27.37
2018-01-21T17:13:53.483Z,31.03
2018-01-21T17:16:21.714Z,24.43
2018-01-21T17:18:49.177Z,32.97
2018-01-21T17:21:16.667Z,22.47
2018-01-21T17:23:44.136Z,28.73
2018-01-21T17:26:12.390Z,26.80
2018-01-21T17:28:39.996Z,26.30
2018-01-21T17:31:07.481Z,24.27
2018-01-21T17:33:34.945Z,25.00
2018-01-21T17:36:02.429Z,26.30
2018-01-21T17:38:30.669Z,25.70
2018-01-21T17:40:58.134Z,29.17
2018-01-21T17:43:25.622Z,25.27
2018-01-21T17:45:53.846Z,30.33
2018-01-21T17:48:21.348Z,29.33
2018-01-21T17:50:49.582Z,24.23
2018-01-21T17:53:17.078Z,50.37
2018-01-21T17:55:45.325Z,28.03
2018-01-21T17:58:12.827Z,24.50
2018-01-21T18:00:40.306Z,25.43
2018-01-21T18:03:07.765Z,24.40
2018-01-21T18:05:35.255Z,26.63
2018-01-21T18:08:02.729Z,27.03
2018-01-21T18:10:30.202Z,25.77
2018-01-21T18:12:58.440Z,26.80
2018-01-21T18:15:26.677Z,24.57
2018-01-21T18:17:54.202Z,25.00
2018-01-21T18:20:21.633Z,31.47
2018-01-21T18:22:49.154Z,29.40
2018-01-21T18:25:16.634Z,21.17
2018-01-21T18:27:44.122Z,26.47
2018-01-21T18:30:12.388Z,29.83
2018-01-21T18:32:39.855Z,26.20
2018-01-21T18:35:08.109Z,27.50
2018-01-21T18:37:35.597Z,36.43
2018-01-21T18:40:03.837Z,29.03
2018-01-21T18:42:31.338Z,24.47
2018-01-21T18:44:58.818Z,29.63
2018-01-21T18:47:26.313Z,26.33
2018-01-21T18:49:53.791Z,27.60
2018-01-21T18:52:21.262Z,21.80
2018-01-21T18:54:48.845Z,24.10
2018-01-21T18:57:16.313Z,21.80
2018-01-21T18:59:43.817Z,23.60
2018-01-21T19:02:12.070Z,32.77
2018-01-21T19:04:39.538Z,22.33
2018-01-21T19:07:07.069Z,22.57
2018-01-21T19:09:35.323Z,20.67
2018-01-21T19:12:02.791Z,22.63
2018-01-21T19:14:30.261Z,15.87
2018-01-21T19:16:57.742Z,19.07
2018-01-21T19:19:25.214Z,19.23
2018-01-21T19:21:53.466Z,21.63
2018-01-21T19:24:22.461Z,27.30
2018-01-21T19:26:49.948Z,17.07
2018-01-21T19:29:18.182Z,21.30
2018-01-21T19:31:45.678Z,16.10
2018-01-21T19:34:13.918Z,20.37
2018-01-21T19:36:41.409Z,22.27
2018-01-21T19:39:11.339Z,25.77
2018-01-21T19:41:40.637Z,24.57
2018-01-21T19:44:08.951Z,17.33
2018-01-21T19:46:44.566Z,17.57
2018-01-21T19:49:12.038Z,17.93
2018-01-21T19:51:39.566Z,22.43
2018-01-21T19:54:07.000Z,19.67
2018-01-21T19:56:34.482Z,16.73
2018-01-21T19:59:02.719Z,20.53
2018-01-21T20:01:30.202Z,14.80
2018-01-21T20:03:58.443Z,20.27
2018-01-21T20:06:25.901Z,16.83
2018-01-21T20:08:53.378Z,17.90
2018-01-21T20:11:21.658Z,20.73
2018-01-21T20:13:49.892Z,16.30
2018-01-21T20:16:17.344Z,14.70
2018-01-21T20:18:44.818Z,22.00
2018-01-21T20:21:12.290Z,18.73
2018-01-21T20:23:40.566Z,20.37
2018-01-21T20:26:08.049Z,14.50
2018-01-21T20:28:36.304Z,16.80
2018-01-21T20:31:03.786Z,19.20
2018-01-21T20:33:31.274Z,19.00
2018-01-21T20:35:58.746Z,21.37
2018-01-21T20:38:26.218Z,17.40
2018-01-21T20:40:53.689Z,21.20
2018-01-21T20:43:21.950Z,18.40
2018-01-21T20:45:49.470Z,22.93
2018-01-21T20:48:16.941Z,23.80
2018-01-21T20:50:44.410Z,18.20
2018-01-21T20:53:17.731Z,19.30
2018-01-21T20:55:45.189Z,17.00
2018-01-21T20:58:13.430Z,27.83
2018-01-21T21:00:40.921Z,19.07
2018-01-21T21:03:09.162Z,18.23
2018-01-21T21:05:36.634Z,17.10
2018-01-21T21:08:04.114Z,15.80
2018-01-21T21:10:32.346Z,15.33
2018-01-21T21:12:59.814Z,18.80
2018-01-21T21:15:28.784Z,22.60
2018-01-21T21:17:56.313Z,17.07
2018-01-21T21:20:23.774Z,16.80
2018-01-21T21:22:51.245Z,20.07
2018-01-21T21:25:18.694Z,18.07
2018-01-21T21:27:46.194Z,14.93
2018-01-21T21:30:13.671Z,18.10
2018-01-21T21:32:41.885Z,18.60
2018-01-21T21:35:09.375Z,19.97
2018-01-21T21:37:36.831Z,19.10
2018-01-21T21:40:04.314Z,18.83
2018-01-21T21:42:32.538Z,18.40
2018-01-21T21:45:00.031Z,18.77
2018-01-21T21:47:27.512Z,16.03
2018-01-21T21:49:55.766Z,16.17
2018-01-21T21:52:23.274Z,19.20
2018-01-21T21:54:50.743Z,16.20
2018-01-21T21:57:18.211Z,16.20
2018-01-21T21:59:45.745Z,14.40
2018-01-21T22:02:13.212Z,17.80
2018-01-21T22:04:40.665Z,14.73
2018-01-21T22:07:08.157Z,12.70
2018-01-21T22:09:35.650Z,13.47
2018-01-21T22:12:03.118Z,13.47
2018-01-21T22:14:30.595Z,14.63
2018-01-21T22:16:58.142Z,19.43
2018-01-21T22:19:25.750Z,17.80
2018-01-21T22:21:53.223Z,13.60
2018-01-21T22:24:20.704Z,13.50
2018-01-21T22:26:48.180Z,13.77
2018-01-21T22:29:15.641Z,19.10
2018-01-21T22:31:43.102Z,15.93
2018-01-21T22:34:10.647Z,15.73
2018-01-21T22:36:38.114Z,16.17
2018-01-21T22:39:05.569Z,17.20
2018-01-21T22:41:33.052Z,19.67
2018-01-21T22:44:00.518Z,21.00
2018-01-21T22:46:27.990Z,19.40
2018-01-21T22:48:56.229Z,18.23
2018-01-21T22:51:23.697Z,19.70
2018-01-21T22:53:51.185Z,20.67
2018-01-21T22:56:19.410Z,23.97
2018-01-21T22:58:46.946Z,20.20
2018-01-21T23:01:14.506Z,23.30
2018-01-21T23:03:42.011Z,25.00
2018-01-21T23:06:09.521Z,19.07
2018-01-21T23:08:36.994Z,16.93
2018-01-21T23:11:04.477Z,23.50
2018-01-21T23:13:33.454Z,19.93
2018-01-21T23:16:00.941Z,17.13
2018-01-21T23:18:29.189Z,14.27
2018-01-21T23:21:04.503Z,26.23
2018-01-21T23:23:31.981Z,28.97
2018-01-21T23:25:59.442Z,18.67
2018-01-21T23:28:26.922Z,27.37
2018-01-21T23:30:54.385Z,22.47
2018-01-21T23:33:22.629Z,20.23
2018-01-21T23:35:50.123Z,25.97
2018-01-21T23:38:18.343Z,20.67
2018-01-21T23:40:45.887Z,18.73
2018-01-21T23:43:13.342Z,22.60
2018-01-21T23:45:40.825Z,19.67
2018-01-21T23:48:08.299Z,21.17
2018-01-21T23:50:35.778Z,21.47
2018-01-21T23:53:04.010Z,21.57
2018-01-21T23:55:31.477Z,31.40
2018-01-21T23:57:58.962Z,23.70
